createdAt,value
2024-04-18T00:00:40.312Z,822.00
2024-04-18T00:01:40.192Z,823.00
2024-04-18T00:02:40.202Z,823.00
2024-04-18T00:03:40.245Z,827.00
2024-04-18T00:04:40.348Z,828.00
2024-04-18T00:05:40.208Z,826.00
2024-04-18T00:06:40.293Z,826.00
2024-04-18T00:07:40.209Z,826.00
2024-04-18T00:08:40.222Z,827.00
2024-04-18T00:09:40.224Z,827.00
2024-04-18T00:10:40.215Z,822.00
2024-04-18T00:11:41.067Z,822.00
2024-04-18T00:12:40.562Z,822.00
2024-04-18T00:13:40.480Z,823.00
2024-04-18T00:14:40.528Z,824.00
2024-04-18T00:15:40.648Z,825.00
2024-04-18T00:16:40.664Z,827.00
2024-04-18T00:17:40.817Z,827.00
2024-04-18T00:18:40.786Z,826.00
2024-04-18T00:19:40.811Z,821.00
2024-04-18T00:20:40.864Z,820.00
2024-04-18T00:21:40.969Z,818.00
2024-04-18T00:22:40.963Z,820.00
2024-04-18T00:23:40.997Z,819.00
2024-04-18T00:24:41.071Z,821.00
2024-04-18T00:25:41.070Z,818.00
2024-04-18T00:26:41.097Z,818.00
2024-04-18T00:27:41.186Z,820.00
2024-04-18T00:28:41.182Z,823.00
2024-04-18T00:29:41.258Z,824.00
2024-04-18T00:30:41.518Z,822.00
2024-04-18T00:31:41.382Z,822.00
2024-04-18T00:32:41.449Z,821.00
2024-04-18T00:33:41.549Z,821.00
2024-04-18T00:34:41.522Z,818.00
2024-04-18T00:35:41.685Z,817.00
2024-04-18T00:36:41.705Z,818.00
2024-04-18T00:37:41.692Z,820.00
2024-04-18T00:38:41.747Z,818.00
2024-04-18T00:39:41.877Z,817.00
2024-04-18T00:40:41.875Z,818.00
2024-04-18T00:41:41.933Z,815.00
2024-04-18T00:42:42.174Z,816.00
2024-04-18T00:43:42.076Z,813.00
2024-04-18T00:44:42.135Z,811.00
2024-04-18T00:45:42.307Z,812.00
2024-04-18T00:46:42.252Z,816.00
2024-04-18T00:47:42.330Z,816.00
2024-04-18T00:48:42.487Z,815.00
2024-04-18T00:49:42.373Z,817.00
2024-04-18T00:50:42.432Z,819.00
2024-04-18T00:51:42.557Z,819.00
2024-04-18T00:52:42.559Z,818.00
2024-04-18T00:53:42.611Z,819.00
2024-04-18T00:54:42.731Z,821.00
2024-04-18T00:55:42.719Z,818.00
2024-04-18T00:56:42.784Z,821.00
2024-04-18T00:57:42.930Z,818.00
2024-04-18T00:58:42.916Z,820.00
2024-04-18T00:59:42.955Z,818.00
2024-04-18T01:00:43.243Z,818.00
2024-04-18T01:01:43.072Z,818.00
2024-04-18T01:02:43.193Z,818.00
2024-04-18T01:03:43.213Z,815.00
2024-04-18T01:04:43.408Z,815.00
2024-04-18T01:05:43.300Z,817.00
2024-04-18T01:06:43.623Z,814.00
2024-04-18T01:07:43.381Z,812.00
2024-04-18T01:08:43.418Z,813.00
2024-04-18T01:09:43.509Z,814.00
2024-04-18T01:10:43.507Z,814.00
2024-04-18T01:11:43.599Z,811.00
2024-04-18T01:12:43.708Z,813.00
2024-04-18T01:13:43.706Z,815.00
2024-04-18T01:14:43.762Z,814.00
2024-04-18T01:15:43.887Z,813.00
2024-04-18T01:16:43.880Z,816.00
2024-04-18T01:17:43.990Z,814.00
2024-04-18T01:18:44.108Z,814.00
2024-04-18T01:19:44.050Z,814.00
2024-04-18T01:20:44.116Z,816.00
2024-04-18T01:21:44.205Z,818.00
2024-04-18T01:22:44.189Z,819.00
2024-04-18T01:23:44.233Z,819.00
2024-04-18T01:24:44.355Z,820.00
2024-04-18T01:25:44.493Z,820.00
2024-04-18T01:26:44.417Z,823.00
2024-04-18T01:27:44.572Z,821.00
2024-04-18T01:28:44.450Z,818.00
2024-04-18T01:29:44.588Z,819.00
2024-04-18T01:30:44.672Z,816.00
2024-04-18T01:31:44.619Z,814.00
2024-04-18T01:32:44.772Z,815.00
2024-04-18T01:33:44.819Z,814.00
2024-04-18T01:34:44.809Z,813.00
2024-04-18T01:35:44.799Z,813.00
2024-04-18T01:36:44.858Z,812.00
2024-04-18T01:37:44.873Z,809.00
2024-04-18T01:38:44.942Z,811.00
2024-04-18T01:39:45.170Z,811.00
2024-04-18T01:40:45.061Z,811.00
2024-04-18T01:41:45.121Z,811.00
2024-04-18T01:42:45.269Z,810.00
2024-04-18T01:43:45.257Z,810.00
2024-04-18T01:44:45.363Z,807.00
2024-04-18T01:45:45.483Z,807.00
2024-04-18T01:46:45.417Z,808.00
2024-04-18T01:47:45.584Z,805.00
2024-04-18T01:48:45.598Z,809.00
2024-04-18T01:49:45.564Z,812.00
2024-04-18T01:50:45.639Z,812.00
2024-04-18T01:51:45.728Z,815.00
2024-04-18T01:52:46.749Z,815.00
2024-04-18T01:53:45.747Z,815.00
2024-04-18T01:54:46.774Z,813.00
2024-04-18T01:55:45.734Z,812.00
2024-04-18T01:56:46.741Z,813.00
2024-04-18T01:57:45.844Z,813.00
2024-04-18T01:58:45.749Z,810.00
2024-04-18T01:59:45.752Z,812.00
2024-04-18T02:00:45.833Z,817.00
2024-04-18T02:01:45.754Z,818.00
2024-04-18T02:02:45.805Z,818.00
2024-04-18T02:03:45.932Z,818.00
2024-04-18T02:04:45.951Z,821.00
2024-04-18T02:05:45.990Z,817.00
2024-04-18T02:06:46.047Z,815.00
2024-04-18T02:07:46.117Z,817.00
2024-04-18T02:08:46.169Z,815.00
2024-04-18T02:09:46.247Z,815.00
2024-04-18T02:10:46.358Z,812.00
2024-04-18T02:11:46.373Z,812.00
2024-04-18T02:12:46.473Z,811.00
2024-04-18T02:13:46.490Z,816.00
2024-04-18T02:14:46.555Z,816.00
2024-04-18T02:15:46.736Z,815.00
2024-04-18T02:16:46.629Z,813.00
2024-04-18T02:17:46.770Z,811.00
2024-04-18T02:18:46.730Z,811.00
2024-04-18T02:19:46.780Z,813.00
2024-04-18T02:20:46.810Z,810.00
2024-04-18T02:21:46.911Z,807.00
2024-04-18T02:22:46.934Z,808.00
2024-04-18T02:23:46.992Z,809.00
2024-04-18T02:24:47.077Z,810.00
2024-04-18T02:25:47.047Z,809.00
2024-04-18T02:26:47.096Z,810.00
2024-04-18T02:27:47.226Z,812.00
2024-04-18T02:28:47.182Z,812.00
2024-04-18T02:29:47.226Z,813.00
2024-04-18T02:30:47.300Z,811.00
2024-04-18T02:31:47.357Z,810.00
2024-04-18T02:32:47.431Z,813.00
2024-04-18T02:33:47.554Z,811.00
2024-04-18T02:34:47.512Z,810.00
2024-04-18T02:35:47.585Z,809.00
2024-04-18T02:36:47.666Z,808.00
2024-04-18T02:37:47.663Z,806.00
2024-04-18T02:38:47.700Z,808.00
2024-04-18T02:39:47.784Z,809.00
2024-04-18T02:40:47.824Z,809.00
2024-04-18T02:41:47.885Z,813.00
2024-04-18T02:42:47.973Z,815.00
2024-04-18T02:43:47.995Z,813.00
2024-04-18T02:44:48.061Z,813.00
2024-04-18T02:45:48.176Z,814.00
2024-04-18T02:46:48.188Z,811.00
2024-04-18T02:47:48.310Z,812.00
2024-04-18T02:48:48.338Z,812.00
2024-04-18T02:49:48.382Z,809.00
2024-04-18T02:50:48.412Z,812.00
2024-04-18T02:51:48.514Z,814.00
2024-04-18T02:52:48.544Z,814.00
2024-04-18T02:53:48.597Z,814.00
2024-04-18T02:54:48.704Z,814.00
2024-04-18T02:55:48.711Z,813.00
2024-04-18T02:56:48.777Z,813.00
2024-04-18T02:57:49.054Z,813.00
2024-04-18T02:58:48.892Z,810.00
2024-04-18T02:59:48.949Z,810.00
2024-04-18T03:00:49.090Z,810.00
2024-04-18T03:01:49.078Z,812.00
2024-04-18T03:02:49.234Z,813.00
2024-04-18T03:03:49.317Z,812.00
2024-04-18T03:04:49.259Z,809.00
2024-04-18T03:05:49.342Z,807.00
2024-04-18T03:06:49.455Z,808.00
2024-04-18T03:07:49.459Z,809.00
2024-04-18T03:08:49.501Z,810.00
2024-04-18T03:09:49.640Z,810.00
2024-04-18T03:10:49.718Z,813.00
2024-04-18T03:11:49.751Z,811.00
2024-04-18T03:12:49.803Z,811.00
2024-04-18T03:13:49.828Z,808.00
2024-04-18T03:14:49.893Z,809.00
2024-04-18T03:15:50.020Z,808.00
2024-04-18T03:16:50.037Z,807.00
2024-04-18T03:17:50.237Z,807.00
2024-04-18T03:18:50.164Z,804.00
2024-04-18T03:19:50.173Z,805.00
2024-04-18T03:20:50.233Z,805.00
2024-04-18T03:21:50.363Z,803.00
2024-04-18T03:22:50.363Z,800.00
2024-04-18T03:23:50.418Z,802.00
2024-04-18T03:24:50.584Z,800.00
2024-04-18T03:25:50.530Z,800.00
2024-04-18T03:26:50.603Z,803.00
2024-04-18T03:27:50.718Z,803.00
2024-04-18T03:28:50.740Z,804.00
2024-04-18T03:29:50.771Z,802.00
2024-04-18T03:30:50.889Z,805.00
2024-04-18T03:31:50.893Z,808.00
2024-04-18T03:32:50.937Z,809.00
2024-04-18T03:33:51.075Z,808.00
2024-04-18T03:34:51.033Z,808.00
2024-04-18T03:35:51.087Z,809.00
2024-04-18T03:36:51.172Z,808.00
2024-04-18T03:37:51.223Z,807.00
2024-04-18T03:38:51.245Z,810.00
2024-04-18T03:39:51.356Z,812.00
2024-04-18T03:40:51.370Z,812.00
2024-04-18T03:41:51.424Z,811.00
2024-04-18T03:42:51.551Z,811.00
2024-04-18T03:43:51.547Z,811.00
2024-04-18T03:44:51.599Z,810.00
2024-04-18T03:45:51.774Z,809.00
2024-04-18T03:46:51.726Z,807.00
2024-04-18T03:47:51.877Z,806.00
2024-04-18T03:48:51.861Z,807.00
2024-04-18T03:49:51.911Z,805.00
2024-04-18T03:50:51.930Z,805.00
2024-04-18T03:51:52.045Z,807.00
2024-04-18T03:52:52.015Z,808.00
2024-04-18T03:53:52.068Z,806.00
2024-04-18T03:55:01.339Z,808.00
2024-04-18T03:55:52.163Z,806.00
2024-04-18T03:56:52.132Z,804.00
2024-04-18T03:57:52.178Z,804.00
2024-04-18T03:58:52.137Z,805.00
2024-04-18T03:59:52.141Z,806.00
2024-04-18T04:00:52.207Z,805.00
2024-04-18T04:01:52.191Z,807.00
2024-04-18T04:02:52.155Z,809.00
2024-04-18T04:03:52.227Z,811.00
2024-04-18T04:04:52.207Z,814.00
2024-04-18T04:05:52.169Z,813.00
2024-04-18T04:06:52.233Z,811.00
2024-04-18T04:07:52.165Z,811.00
2024-04-18T04:08:52.157Z,811.00
2024-04-18T04:09:52.194Z,810.00
2024-04-18T04:10:52.253Z,809.00
2024-04-18T04:11:52.188Z,808.00
2024-04-18T04:12:52.282Z,810.00
2024-04-18T04:13:52.171Z,808.00
2024-04-18T04:14:52.226Z,808.00
2024-04-18T04:15:52.322Z,811.00
2024-04-18T04:16:52.186Z,810.00
2024-04-18T04:17:52.248Z,809.00
2024-04-18T04:18:52.243Z,808.00
2024-04-18T04:19:52.205Z,807.00
2024-04-18T04:20:52.198Z,805.00
2024-04-18T04:21:53.239Z,804.00
2024-04-18T04:22:52.187Z,805.00
2024-04-18T04:23:52.199Z,805.00
2024-04-18T04:24:52.316Z,806.00
2024-04-18T04:25:52.258Z,807.00
2024-04-18T04:26:52.319Z,807.00
2024-04-18T04:27:52.409Z,806.00
2024-04-18T04:28:53.458Z,801.00
2024-04-18T04:29:52.496Z,798.00
2024-04-18T04:30:53.633Z,797.00
2024-04-18T04:31:52.653Z,800.00
2024-04-18T04:32:52.782Z,802.00
2024-04-18T04:33:52.775Z,803.00
2024-04-18T04:34:52.821Z,805.00
2024-04-18T04:35:52.873Z,808.00
2024-04-18T04:36:54.118Z,808.00
2024-04-18T04:37:52.997Z,807.00
2024-04-18T04:38:53.055Z,810.00
2024-04-18T04:39:53.189Z,808.00
2024-04-18T04:40:53.198Z,809.00
2024-04-18T04:41:53.249Z,808.00
2024-04-18T04:42:53.853Z,809.00
2024-04-18T04:43:53.392Z,808.00
2024-04-18T04:44:53.417Z,807.00
2024-04-18T04:46:00.649Z,804.00
2024-04-18T04:47:01.637Z,808.00
2024-04-18T04:48:01.715Z,812.00
2024-04-18T04:49:01.701Z,811.00
2024-04-18T04:50:01.730Z,810.00
2024-04-18T04:51:01.670Z,808.00
2024-04-18T04:52:01.663Z,808.00
2024-04-18T04:53:01.640Z,805.00
2024-04-18T04:54:01.650Z,807.00
2024-04-18T04:55:01.643Z,808.00
2024-04-18T04:56:01.657Z,808.00
2024-04-18T04:57:01.721Z,808.00
2024-04-18T04:58:01.647Z,807.00
2024-04-18T04:59:01.679Z,805.00
2024-04-18T05:00:01.727Z,802.00
2024-04-18T05:01:01.751Z,802.00
2024-04-18T05:02:01.740Z,801.00
2024-04-18T05:03:01.721Z,800.00
2024-04-18T05:04:01.729Z,797.00
2024-04-18T05:05:01.662Z,798.00
2024-04-18T05:06:01.703Z,798.00
2024-04-18T05:07:01.662Z,799.00
2024-04-18T05:08:01.679Z,799.00
2024-04-18T05:09:01.671Z,799.00
2024-04-18T05:10:01.795Z,801.00
2024-04-18T05:11:01.731Z,802.00
2024-04-18T05:12:01.699Z,802.00
2024-04-18T05:13:01.714Z,803.00
2024-04-18T05:14:01.768Z,807.00
2024-04-18T05:15:01.842Z,808.00
2024-04-18T05:16:02.453Z,878.00
2024-04-18T05:17:01.937Z,898.00
2024-04-18T05:18:02.000Z,903.00
2024-04-18T05:19:02.014Z,913.00
2024-04-18T05:20:02.061Z,930.00
2024-04-18T05:21:02.187Z,944.00
2024-04-18T05:22:02.168Z,950.00
2024-04-18T05:23:02.225Z,946.00
2024-04-18T05:24:02.294Z,950.00
2024-04-18T05:25:02.321Z,953.00
2024-04-18T05:26:02.852Z,983.00
2024-04-18T05:27:02.417Z,978.00
2024-04-18T05:28:02.482Z,942.00
2024-04-18T05:29:02.531Z,920.00
2024-04-18T05:30:02.593Z,914.00
2024-04-18T05:31:03.107Z,903.00
2024-04-18T05:32:02.649Z,901.00
2024-04-18T05:33:02.804Z,901.00
2024-04-18T05:34:02.789Z,908.00
2024-04-18T05:35:03.575Z,928.00
2024-04-18T05:36:02.855Z,980.00
2024-04-18T05:37:03.169Z,1012.00
2024-04-18T05:38:02.914Z,1037.00
2024-04-18T05:39:02.943Z,1064.00
2024-04-18T05:40:03.028Z,1093.00
2024-04-18T05:41:03.312Z,1107.00
2024-04-18T05:42:03.293Z,1116.00
2024-04-18T05:43:03.973Z,1125.00
2024-04-18T05:44:03.015Z,1132.00
2024-04-18T05:45:03.012Z,1134.00
2024-04-18T05:46:03.037Z,1124.00
2024-04-18T05:47:03.104Z,1154.00
2024-04-18T05:48:03.146Z,1198.00
2024-04-18T05:49:03.207Z,1241.00
2024-04-18T05:50:04.274Z,1277.00
2024-04-18T05:51:03.278Z,1326.00
2024-04-18T05:52:03.810Z,1353.00
2024-04-18T05:53:03.377Z,1371.00
2024-04-18T05:54:03.463Z,1450.00
2024-04-18T05:55:03.523Z,1484.00
2024-04-18T05:56:03.616Z,1553.00
2024-04-18T05:57:04.978Z,1592.00
2024-04-18T05:58:03.854Z,1610.00
2024-04-18T05:59:19.497Z,1920.00
2024-04-18T06:00:03.945Z,1849.00
2024-04-18T06:01:04.160Z,1752.00
2024-04-18T06:02:04.052Z,1760.00
2024-04-18T06:03:19.657Z,1776.00
2024-04-18T06:04:07.317Z,1802.00
2024-04-18T06:05:03.978Z,1858.00
2024-04-18T06:06:03.974Z,1880.00
2024-04-18T06:07:03.929Z,1901.00
2024-04-18T06:08:03.956Z,1968.00
2024-04-18T06:09:03.989Z,2036.00
2024-04-18T06:10:03.913Z,2047.00
2024-04-18T06:11:04.085Z,2065.00
2024-04-18T06:12:03.953Z,2177.00
2024-04-18T06:13:03.945Z,2216.00
2024-04-18T06:14:03.971Z,2225.00
2024-04-18T06:15:04.008Z,2253.00
2024-04-18T06:16:03.891Z,2291.00
2024-04-18T06:17:04.234Z,2325.00
2024-04-18T06:18:03.823Z,2400.00
2024-04-18T06:19:03.806Z,2422.00
2024-04-18T06:20:03.812Z,2545.00
2024-04-18T06:21:03.814Z,2531.00
2024-04-18T06:22:03.814Z,2542.00
2024-04-18T06:23:03.867Z,2557.00
2024-04-18T06:24:03.915Z,2588.00
2024-04-18T06:25:03.964Z,2629.00
2024-04-18T06:26:03.930Z,2718.00
2024-04-18T06:27:03.976Z,2716.00
2024-04-18T06:28:04.027Z,2731.00
2024-04-18T06:29:07.257Z,2826.00
2024-04-18T06:30:04.095Z,2834.00
2024-04-18T06:31:04.351Z,2858.00
2024-04-18T06:32:04.067Z,2876.00
2024-04-18T06:33:04.230Z,2875.00
2024-04-18T06:34:04.416Z,2870.00
2024-04-18T06:35:04.098Z,2892.00
2024-04-18T06:36:04.079Z,2904.00
2024-04-18T06:37:07.419Z,2914.00
2024-04-18T06:38:04.130Z,2935.00
2024-04-18T06:39:04.089Z,2978.00
2024-04-18T06:40:04.172Z,3004.00
2024-04-18T06:41:04.066Z,3064.00
2024-04-18T06:42:04.870Z,3092.00
2024-04-18T06:43:04.097Z,3119.00
2024-04-18T06:44:05.400Z,3157.00
2024-04-18T06:45:04.197Z,3218.00
2024-04-18T06:46:05.339Z,3250.00
2024-04-18T06:47:05.132Z,3251.00
2024-04-18T06:48:07.310Z,3245.00
2024-04-18T06:49:04.171Z,3148.00
2024-04-18T06:50:38.927Z,3120.00
2024-04-18T06:51:06.140Z,2958.00
2024-04-18T06:52:05.071Z,2850.00
2024-04-18T06:53:04.065Z,2846.00
2024-04-18T06:54:04.156Z,2890.00
2024-04-18T06:55:04.130Z,2972.00
2024-04-18T06:56:11.762Z,3004.00
2024-04-18T06:57:35.999Z,3021.00
2024-04-18T06:58:04.116Z,3087.00
2024-04-18T06:59:04.322Z,3111.00
2024-04-18T07:00:04.274Z,3150.00
2024-04-18T07:01:04.707Z,3185.00
2024-04-18T07:02:04.289Z,3272.00
2024-04-18T07:03:04.209Z,3288.00
2024-04-18T07:04:04.483Z,3307.00
2024-04-18T07:05:04.472Z,3303.00
2024-04-18T07:06:04.352Z,3302.00
2024-04-18T07:07:04.563Z,3289.00
2024-04-18T07:08:04.113Z,3295.00
2024-04-18T07:09:04.177Z,3258.00
2024-04-18T07:10:04.234Z,3211.00
2024-04-18T07:11:04.557Z,3195.00
2024-04-18T07:12:04.530Z,3192.00
2024-04-18T07:13:04.146Z,3091.00
2024-04-18T07:14:04.161Z,3046.00
2024-04-18T07:15:04.239Z,3042.00
2024-04-18T07:16:04.189Z,3050.00
2024-04-18T07:17:05.133Z,3051.00
2024-04-18T07:18:04.320Z,3062.00
2024-04-18T07:19:04.561Z,3058.00
2024-04-18T07:20:04.190Z,3064.00
2024-04-18T07:21:04.457Z,3074.00
2024-04-18T07:22:04.441Z,3083.00
2024-04-18T07:23:04.145Z,3093.00
2024-04-18T07:24:04.190Z,3163.00
2024-04-18T07:25:04.181Z,3172.00
2024-04-18T07:26:04.333Z,3190.00
2024-04-18T07:27:04.399Z,3226.00
2024-04-18T07:28:04.281Z,3245.00
2024-04-18T07:29:04.305Z,3313.00
2024-04-18T07:30:05.341Z,3311.00
2024-04-18T07:31:04.482Z,3286.00
2024-04-18T07:32:05.317Z,3173.00
2024-04-18T07:33:04.986Z,3150.00
2024-04-18T07:34:04.552Z,3128.00
2024-04-18T07:35:04.564Z,2950.00
2024-04-18T07:36:04.808Z,2925.00
2024-04-18T07:37:05.191Z,2085.00
2024-04-18T07:38:05.199Z,1726.00
2024-04-18T07:39:04.793Z,1535.00
2024-04-18T07:40:05.029Z,1498.00
2024-04-18T07:41:05.299Z,1571.00
2024-04-18T07:42:05.576Z,1708.00
2024-04-18T07:43:05.109Z,1683.00
2024-04-18T07:44:05.115Z,1497.00
2024-04-18T07:45:05.144Z,1431.00
2024-04-18T07:46:05.510Z,1409.00
2024-04-18T07:47:05.609Z,1452.00
2024-04-18T07:48:05.400Z,1261.00
2024-04-18T07:49:05.368Z,1155.00
2024-04-18T07:50:05.387Z,1250.00
2024-04-18T07:51:05.417Z,1171.00
2024-04-18T07:52:09.973Z,1201.00
2024-04-18T07:53:09.768Z,1101.00
2024-04-18T07:54:06.531Z,1082.00
2024-04-18T07:55:06.048Z,1091.00
2024-04-18T07:56:06.019Z,1090.00
2024-04-18T07:57:06.380Z,1204.00
2024-04-18T07:58:06.746Z,1224.00
2024-04-18T07:59:06.194Z,1284.00
2024-04-18T08:00:07.323Z,1319.00
2024-04-18T08:01:07.710Z,1388.00
2024-04-18T08:02:08.558Z,1424.00
2024-04-18T08:03:08.818Z,1479.00
2024-04-18T08:04:27.014Z,1576.00
2024-04-18T08:05:07.284Z,1607.00
2024-04-18T08:06:07.725Z,1660.00
2024-04-18T08:07:09.118Z,1707.00
2024-04-18T08:08:08.147Z,1736.00
2024-04-18T08:09:08.172Z,1821.00
2024-04-18T08:10:09.045Z,1831.00
2024-04-18T08:11:26.012Z,1852.00
2024-04-18T08:12:23.702Z,1896.00
2024-04-18T08:13:10.147Z,1983.00
2024-04-18T08:14:09.628Z,2005.00
2024-04-18T08:15:10.970Z,2034.00
2024-04-18T08:16:05.996Z,2092.00
2024-04-18T08:17:06.115Z,2098.00
2024-04-18T08:18:05.991Z,2136.00
2024-04-18T08:19:05.855Z,2179.00
2024-04-18T08:20:06.049Z,2230.00
2024-04-18T08:21:05.874Z,2254.00
2024-04-18T08:22:05.877Z,2279.00
2024-04-18T08:23:06.392Z,2305.00
2024-04-18T08:24:05.890Z,2408.00
2024-04-18T08:25:05.831Z,2427.00
2024-04-18T08:26:05.891Z,2432.00
2024-04-18T08:27:05.899Z,2487.00
2024-04-18T08:28:05.835Z,2518.00
2024-04-18T08:29:05.832Z,2524.00
2024-04-18T08:30:05.886Z,2527.00
2024-04-18T08:31:05.895Z,2516.00
2024-04-18T08:32:05.902Z,2501.00
2024-04-18T08:33:09.183Z,2446.00
2024-04-18T08:34:11.725Z,2367.00
2024-04-18T08:35:05.838Z,2344.00
2024-04-18T08:36:05.868Z,2268.00
2024-04-18T08:37:05.883Z,2219.00
2024-04-18T08:38:05.867Z,2250.00
2024-04-18T08:39:06.399Z,2319.00
2024-04-18T08:40:05.853Z,2380.00
2024-04-18T08:41:05.866Z,2415.00
2024-04-18T08:42:05.954Z,2452.00
2024-04-18T08:43:05.972Z,2453.00
2024-04-18T08:44:06.251Z,2451.00
2024-04-18T08:45:05.889Z,2441.00
2024-04-18T08:46:07.201Z,2434.00
2024-04-18T08:47:05.985Z,2430.00
2024-04-18T08:48:07.084Z,2407.00
2024-04-18T08:49:06.096Z,2261.00
2024-04-18T08:50:05.923Z,2203.00
2024-04-18T08:51:06.890Z,2141.00
2024-04-18T08:52:05.895Z,2059.00
2024-04-18T08:53:05.939Z,2041.00
2024-04-18T08:54:05.901Z,1900.00
2024-04-18T08:55:05.887Z,1925.00
2024-04-18T08:56:05.886Z,1932.00
2024-04-18T08:57:21.511Z,1784.00
2024-04-18T08:58:05.890Z,1687.00
2024-04-18T08:59:06.868Z,1698.00
2024-04-18T09:00:05.965Z,1717.00
2024-04-18T09:01:06.418Z,1760.00
2024-04-18T09:02:05.890Z,1821.00
2024-04-18T09:03:06.100Z,1854.00
2024-04-18T09:04:07.118Z,1943.00
2024-04-18T09:05:05.884Z,1976.00
2024-04-18T09:06:06.546Z,2052.00
2024-04-18T09:07:05.897Z,2071.00
2024-04-18T09:08:05.903Z,2084.00
2024-04-18T09:09:06.001Z,2110.00
2024-04-18T09:10:06.256Z,2194.00
2024-04-18T09:11:06.683Z,2196.00
2024-04-18T09:12:07.526Z,2221.00
2024-04-18T09:14:05.320Z,2275.00
2024-04-18T09:15:06.368Z,2357.00
2024-04-18T09:16:06.326Z,2391.00
2024-04-18T09:17:08.040Z,2407.00
2024-04-18T09:18:07.600Z,2460.00
2024-04-18T09:19:07.624Z,2514.00
2024-04-18T09:20:06.658Z,2556.00
2024-04-18T09:21:06.975Z,2587.00
2024-04-18T09:22:06.714Z,2614.00
2024-04-18T09:23:06.895Z,2691.00
2024-04-18T09:24:06.734Z,2715.00
2024-04-18T09:25:06.727Z,2723.00
2024-04-18T09:26:06.908Z,2730.00
2024-04-18T09:27:06.796Z,2718.00
2024-04-18T09:28:06.823Z,2681.00
2024-04-18T09:29:06.933Z,2536.00
2024-04-18T09:30:06.909Z,1693.00
2024-04-18T09:31:06.922Z,1800.00
2024-04-18T09:32:06.957Z,1662.00
2024-04-18T09:33:08.040Z,1668.00
2024-04-18T09:34:07.542Z,1570.00
2024-04-18T09:35:07.012Z,1439.00
2024-04-18T09:36:07.099Z,1168.00
2024-04-18T09:37:07.437Z,1155.00
2024-04-18T09:38:10.250Z,1062.00
2024-04-18T09:39:07.200Z,1021.00
2024-04-18T09:40:07.184Z,977.00
2024-04-18T09:41:07.139Z,949.00
2024-04-18T09:42:07.428Z,967.00
2024-04-18T09:43:07.357Z,979.00
2024-04-18T09:44:07.581Z,987.00
2024-04-18T09:45:07.352Z,999.00
2024-04-18T09:46:07.332Z,1012.00
2024-04-18T09:47:07.593Z,1021.00
2024-04-18T09:48:07.527Z,1032.00
2024-04-18T09:49:07.393Z,1042.00
2024-04-18T09:50:07.266Z,1079.00
2024-04-18T09:51:07.214Z,1094.00
2024-04-18T09:52:07.231Z,1090.00
2024-04-18T09:53:07.167Z,1087.00
2024-04-18T09:54:07.510Z,1096.00
2024-04-18T09:55:07.196Z,1272.00
2024-04-18T09:56:07.244Z,1218.00
2024-04-18T09:57:07.415Z,1246.00
2024-04-18T09:58:07.398Z,1234.00
2024-04-18T09:59:07.475Z,1344.00
2024-04-18T10:00:07.519Z,1405.00
2024-04-18T10:01:07.549Z,1456.00
2024-04-18T10:02:09.586Z,1436.00
2024-04-18T10:03:07.714Z,1441.00
2024-04-18T10:04:07.800Z,1427.00
2024-04-18T10:05:07.862Z,1603.00
2024-04-18T10:06:10.861Z,1614.00
2024-04-18T10:07:07.719Z,1615.00
2024-04-18T10:08:07.564Z,1605.00
2024-04-18T10:09:07.622Z,1598.00
2024-04-18T10:10:07.535Z,1601.00
2024-04-18T10:11:07.613Z,1570.00
2024-04-18T10:12:08.004Z,1515.00
2024-04-18T10:13:07.562Z,1491.00
2024-04-18T10:14:07.670Z,1436.00
2024-04-18T10:15:07.636Z,1422.00
2024-04-18T10:16:07.777Z,1398.00
2024-04-18T10:17:07.589Z,1380.00
2024-04-18T10:18:07.729Z,1369.00
2024-04-18T10:19:07.799Z,1363.00
2024-04-18T10:20:07.606Z,1358.00
2024-04-18T10:21:07.585Z,1355.00
2024-04-18T10:22:17.644Z,1350.00
2024-04-18T10:23:07.653Z,1350.00
2024-04-18T10:24:07.610Z,1350.00
2024-04-18T10:25:07.981Z,1347.00
2024-04-18T10:26:07.614Z,1346.00
2024-04-18T10:27:08.563Z,1345.00
2024-04-18T10:28:10.736Z,1339.00
2024-04-18T10:29:07.620Z,1338.00
2024-04-18T10:30:07.617Z,1333.00
2024-04-18T10:31:09.411Z,1327.00
2024-04-18T10:32:07.981Z,1321.00
2024-04-18T10:33:08.256Z,1322.00
2024-04-18T10:34:07.619Z,1317.00
2024-04-18T10:35:07.641Z,1319.00
2024-04-18T10:36:07.601Z,1313.00
2024-04-18T10:37:07.580Z,1312.00
2024-04-18T10:38:07.937Z,1313.00
2024-04-18T10:39:07.561Z,1305.00
2024-04-18T10:40:07.576Z,1300.00
2024-04-18T10:41:07.554Z,1299.00
2024-04-18T10:42:07.637Z,1299.00
2024-04-18T10:43:07.560Z,1295.00
2024-04-18T10:44:07.562Z,1291.00
2024-04-18T10:45:07.593Z,1289.00
2024-04-18T10:46:07.603Z,1287.00
2024-04-18T10:47:07.579Z,1289.00
2024-04-18T10:48:07.673Z,1288.00
2024-04-18T10:49:07.663Z,1286.00
2024-04-18T10:50:07.567Z,1282.00
2024-04-18T10:51:07.624Z,1282.00
2024-04-18T10:52:07.929Z,1283.00
2024-04-18T10:53:07.618Z,1281.00
2024-04-18T10:54:07.612Z,1277.00
2024-04-18T10:55:07.663Z,1275.00
2024-04-18T10:56:07.735Z,1274.00
2024-04-18T10:57:07.766Z,1277.00
2024-04-18T11:47:07.471Z,1196.00
2024-04-18T11:48:08.388Z,1196.00
2024-04-18T11:49:08.171Z,1193.00
2024-04-18T11:50:08.211Z,1189.00
2024-04-18T11:51:08.071Z,1189.00
2024-04-18T11:52:08.055Z,1186.00
2024-04-18T11:53:08.073Z,1185.00
2024-04-18T11:54:08.083Z,1187.00
2024-04-18T11:55:08.081Z,1188.00
2024-04-18T11:56:08.123Z,1187.00
2024-04-18T11:57:08.107Z,1183.00
2024-04-18T11:58:08.075Z,1185.00
2024-04-18T11:59:08.136Z,1182.00
2024-04-18T12:00:08.130Z,1180.00
2024-04-18T12:01:08.118Z,1178.00
2024-04-18T12:02:08.088Z,1176.00
2024-04-18T12:03:08.218Z,1177.00
2024-04-18T12:04:08.254Z,1174.00
2024-04-18T12:05:08.183Z,1171.00
2024-04-18T12:06:08.176Z,1172.00
2024-04-18T12:07:08.463Z,1176.00
2024-04-18T12:08:08.130Z,1174.00
2024-04-18T12:09:08.236Z,1172.00
2024-04-18T12:10:08.210Z,1172.00
2024-04-18T12:11:08.474Z,1172.00
2024-04-18T12:12:08.340Z,1170.00
2024-04-18T12:13:08.397Z,1165.00
2024-04-18T12:14:09.684Z,1161.00
2024-04-18T12:15:08.589Z,1154.00
2024-04-18T12:16:09.028Z,1149.00
2024-04-18T12:17:08.628Z,1150.00
2024-04-18T12:18:08.676Z,1152.00
2024-04-18T12:19:08.902Z,1153.00
2024-04-18T12:20:08.684Z,1151.00
2024-04-18T12:21:08.989Z,1152.00
2024-04-18T12:22:08.736Z,1153.00
2024-04-18T12:23:08.821Z,1151.00
2024-04-18T12:24:08.851Z,1151.00
2024-04-18T12:25:08.867Z,1153.00
2024-04-18T12:26:08.906Z,1154.00
2024-04-18T12:27:08.994Z,1151.00
2024-04-18T12:28:08.991Z,1151.00
2024-04-18T12:29:09.477Z,1151.00
2024-04-18T12:30:09.133Z,1149.00
2024-04-18T12:31:09.092Z,1147.00
2024-04-18T12:32:09.161Z,1151.00
2024-04-18T12:33:09.532Z,1151.00
2024-04-18T12:34:09.267Z,1150.00
2024-04-18T12:35:09.499Z,1147.00
2024-04-18T12:36:09.388Z,1149.00
2024-04-18T12:37:09.492Z,1146.00
2024-04-18T12:38:09.482Z,1143.00
2024-04-18T12:39:09.949Z,1142.00
2024-04-18T12:40:09.986Z,1145.00
2024-04-18T12:41:09.661Z,1139.00
2024-04-18T12:42:09.728Z,1139.00
2024-04-18T12:43:09.758Z,1140.00
2024-04-18T12:44:09.828Z,1140.00
2024-04-18T12:45:09.943Z,1139.00
2024-04-18T12:46:15.316Z,1134.00
2024-04-18T12:47:09.994Z,1133.00
2024-04-18T12:48:10.032Z,1133.00
2024-04-18T12:49:10.146Z,1133.00
2024-04-18T12:50:09.995Z,1133.00
2024-04-18T12:51:09.977Z,1131.00
2024-04-18T12:52:10.039Z,1130.00
2024-04-18T12:53:09.960Z,1128.00
2024-04-18T12:54:09.996Z,1130.00
2024-04-18T12:55:09.966Z,1131.00
2024-04-18T12:56:09.968Z,1133.00
2024-04-18T12:57:10.045Z,1133.00
2024-04-18T12:58:09.986Z,1136.00
2024-04-18T12:59:11.003Z,1133.00
2024-04-18T13:00:10.029Z,1130.00
2024-04-18T13:01:10.126Z,1128.00
2024-04-18T13:02:10.000Z,1125.00
2024-04-18T13:03:10.072Z,1122.00
2024-04-18T13:04:10.077Z,1116.00
2024-04-18T13:05:10.544Z,1116.00
2024-04-18T13:06:10.003Z,1113.00
2024-04-18T13:07:09.988Z,1113.00